Terminal Aerodrome Forecast
Issued by NWS

Home | Current Version | Previous Version | Text Only | Print | Product List | Glossary On
Versions: 1 2 3 4 5 6 7 8 9 10 11 12 13 14 15 16 17
000
FTUS45 KABQ 012300
TAFTCC
TAF
KTCC 012340Z 0200/0224 08010G18KT P6SM OVC012
      TEMPO 0203/0207 6SM -FZDZ BR OVC006
     FM021500 18006KT P6SM OVC007
     FM021900 21012G18KT P6SM OVC015=

USA.gov is the U.S. government's official web portal to all federal, state and local government web resources and services.